Grant City, Indiana
Current Conditions -  °F | °C
As of 7:15 PM on Saturday 25 Oct 2014 (Local Time) from KMQJ Reporting Station
Clear Clear  
Wind Chill: 66°   Ceiling: Unl
Heat Index: 66°   Visibility: 10mi
Dew Point: 34°   Wind: 9mph
Humidity: 30%   Direction: 280°W
Pressure: 29.93"   Gusts: NA
Location:  39.9185°N, 85.5187°W
Report Text: KMQJ 252315Z AUTO 28008KT 10SM CLR 19/01 A2993 RMK AO1
Loading
Personal Weather Stations






























Interactive Weather Map
Tropical Storm Tracking
New forecast layout! Learn more

10-Day Weather Forecast

Advertisements
Track Severe Weather on mobile